createdAt,value
2022-12-08T00:01:11.424Z,98444.34
2022-12-08T00:03:39.088Z,98444.34
2022-12-08T00:06:26.531Z,98447.03
2022-12-08T00:09:12.163Z,98441.66
2022-12-08T00:11:39.668Z,98449.94
2022-12-08T00:14:06.492Z,98437.75
2022-12-08T00:16:33.290Z,98434.03
2022-12-08T00:19:00.075Z,98434.47
2022-12-08T00:21:26.912Z,98432.59
2022-12-08T00:23:56.173Z,98436.34
2022-12-08T00:26:23.630Z,98432.22
2022-12-08T00:28:50.428Z,98437.81
2022-12-08T00:31:17.646Z,98430.81
2022-12-08T00:33:44.514Z,98431.84
2022-12-08T00:36:13.892Z,98432.91
2022-12-08T00:38:41.643Z,98432.06
2022-12-08T00:41:40.317Z,98430.87
2022-12-08T00:44:09.951Z,98427.12
2022-12-08T00:46:37.104Z,98420.75
2022-12-08T00:49:05.778Z,98429.44
2022-12-08T00:51:33.215Z,98428.00
2022-12-08T00:54:00.538Z,98426.13
2022-12-08T00:56:27.832Z,98429.03
2022-12-08T00:58:54.654Z,98429.25
2022-12-08T01:01:21.615Z,98422.47
2022-12-08T01:03:48.847Z,98417.09
2022-12-08T01:06:16.088Z,98422.91
2022-12-08T01:08:43.024Z,98430.97
2022-12-08T01:11:13.432Z,98428.28
2022-12-08T01:13:40.578Z,98430.75
2022-12-08T01:16:07.649Z,98436.56
2022-12-08T01:18:34.747Z,98440.31
2022-12-08T01:21:06.254Z,98431.63
2022-12-08T01:23:34.225Z,98429.16
2022-12-08T01:26:05.549Z,98430.81
2022-12-08T01:28:33.316Z,98429.59
2022-12-08T01:31:01.681Z,98436.63
2022-12-08T01:33:29.861Z,98432.91
2022-12-08T01:35:56.646Z,98431.47
2022-12-08T01:38:23.437Z,98432.28
2022-12-08T01:40:50.222Z,98428.78
2022-12-08T01:43:18.929Z,98434.97
2022-12-08T01:45:46.438Z,98431.47
2022-12-08T01:48:33.508Z,98424.22
2022-12-08T01:51:01.291Z,98423.41
2022-12-08T01:53:35.102Z,98424.22
2022-12-08T01:56:15.963Z,98419.91
2022-12-08T01:58:48.198Z,98414.75
2022-12-08T02:01:15.269Z,98410.41
2022-12-08T02:03:51.805Z,98406.06
2022-12-08T02:06:20.049Z,98414.75
2022-12-08T02:08:48.968Z,98405.03
2022-12-08T02:11:16.124Z,98405.22
2022-12-08T02:13:46.075Z,98394.47
2022-12-08T02:16:25.004Z,98401.09
2022-12-08T02:19:32.173Z,98396.56
2022-12-08T02:22:04.255Z,98394.47
2022-12-08T02:24:45.839Z,98398.19
2022-12-08T02:27:50.222Z,98393.22
2022-12-08T02:30:26.220Z,98396.97
2022-12-08T02:32:56.274Z,98393.66
2022-12-08T02:35:35.079Z,98393.22
2022-12-08T02:38:04.903Z,98394.88
2022-12-08T02:40:39.772Z,98386.81
2022-12-08T02:43:39.638Z,98383.69
2022-12-08T02:46:11.999Z,98381.00
2022-12-08T02:48:39.373Z,98371.44
2022-12-08T02:51:06.164Z,98364.63
2022-12-08T02:53:35.251Z,98366.50
2022-12-08T02:56:20.566Z,98360.09
2022-12-08T02:59:05.899Z,98360.09
2022-12-08T03:01:51.497Z,98361.72
2022-12-08T03:04:45.278Z,98363.37
2022-12-08T03:07:22.282Z,98353.88
2022-12-08T03:09:56.363Z,98350.16
2022-12-08T03:12:34.788Z,98350.38
2022-12-08T03:15:08.811Z,98352.84
2022-12-08T03:17:39.205Z,98345.59
2022-12-08T03:20:12.236Z,98345.22
2022-12-08T03:22:40.804Z,98339.25
2022-12-08T03:25:10.435Z,98345.22
2022-12-08T03:27:37.256Z,98341.72
2022-12-08T03:30:05.058Z,98342.75
2022-12-08T03:32:47.645Z,98337.38
2022-12-08T03:35:31.031Z,98337.38
2022-12-08T03:38:07.191Z,98335.28
2022-12-08T03:40:34.360Z,98337.16
2022-12-08T03:43:01.298Z,98328.88
2022-12-08T03:45:28.231Z,98337.75
2022-12-08T03:47:55.091Z,98336.09
2022-12-08T03:50:22.027Z,98332.59
2022-12-08T03:52:49.044Z,98333.19
2022-12-08T03:55:16.149Z,98328.03
2022-12-08T03:57:43.413Z,98323.72
2022-12-08T04:00:15.055Z,98317.28
2022-12-08T04:02:41.889Z,98311.69
2022-12-08T04:05:09.000Z,98308.19
2022-12-08T04:07:35.924Z,98301.97
2022-12-08T04:10:03.153Z,98303.03
2022-12-08T04:12:30.386Z,98290.62
2022-12-08T04:14:57.166Z,98293.53
2022-12-08T04:17:23.930Z,98292.50
2022-12-08T04:19:50.701Z,98292.50
2022-12-08T04:22:17.436Z,98284.44
2022-12-08T04:24:44.253Z,98288.16
2022-12-08T04:27:11.019Z,98291.06
2022-12-08T04:29:37.792Z,98297.28
2022-12-08T04:32:04.948Z,98298.09
2022-12-08T04:34:31.699Z,98286.94
2022-12-08T04:36:58.419Z,98293.16
2022-12-08T04:39:25.325Z,98292.94
2022-12-08T04:41:52.156Z,98292.31
2022-12-08T04:44:18.962Z,98291.50
2022-12-08T04:46:45.751Z,98290.66
2022-12-08T04:49:12.575Z,98281.41
2022-12-08T04:51:39.415Z,98287.00
2022-12-08T04:54:06.318Z,98293.44
2022-12-08T04:56:33.117Z,98278.13
2022-12-08T04:58:59.931Z,98282.09
2022-12-08T05:01:26.875Z,98276.72
2022-12-08T05:03:53.787Z,98272.97
2022-12-08T05:06:20.595Z,98272.97
2022-12-08T05:08:47.339Z,98270.87
2022-12-08T05:11:14.387Z,98264.91
2022-12-08T05:13:41.250Z,98266.19
2022-12-08T05:16:10.781Z,98281.72
2022-12-08T05:18:39.336Z,98279.25
2022-12-08T05:21:06.953Z,98270.34
2022-12-08T05:23:34.467Z,98264.75
2022-12-08T05:26:01.289Z,98277.38
2022-12-08T05:28:44.226Z,98266.84
2022-12-08T05:31:15.708Z,98265.81
2022-12-08T05:33:43.737Z,98267.66
2022-12-08T05:36:13.399Z,98266.84
2022-12-08T05:38:40.863Z,98265.59
2022-12-08T05:41:08.837Z,98265.81
2022-12-08T05:43:35.686Z,98256.91
2022-12-08T05:46:02.893Z,98260.88
2022-12-08T05:48:29.700Z,98256.09
2022-12-08T05:50:56.582Z,98258.78
2022-12-08T05:53:23.402Z,98266.84
2022-12-08T05:55:50.171Z,98274.31
2022-12-08T05:58:20.770Z,98275.97
2022-12-08T06:00:48.577Z,98273.66
2022-12-08T06:03:17.901Z,98280.06
2022-12-08T06:05:46.270Z,98282.53
2022-12-08T06:08:14.016Z,98282.53
2022-12-08T06:10:42.703Z,98283.56
2022-12-08T06:13:09.810Z,98282.53
2022-12-08T06:15:38.300Z,98276.34
2022-12-08T06:18:06.316Z,98269.91
2022-12-08T06:20:33.652Z,98279.63
2022-12-08T06:23:00.629Z,98276.72
2022-12-08T06:25:27.496Z,98277.53
2022-12-08T06:27:54.270Z,98290.16
2022-12-08T06:30:21.070Z,98285.59
2022-12-08T06:32:47.867Z,98275.88
2022-12-08T06:35:14.638Z,98272.16
2022-12-08T06:37:41.436Z,98278.34
2022-12-08T06:40:08.850Z,98270.06
2022-12-08T06:42:44.715Z,98272.75
2022-12-08T06:45:16.151Z,98271.94
2022-12-08T06:47:43.907Z,98271.09
2022-12-08T06:50:11.947Z,98272.75
2022-12-08T06:52:47.271Z,98271.94
2022-12-08T06:55:42.469Z,98271.94
2022-12-08T06:58:06.796Z,98270.44
2022-12-08T07:00:33.578Z,98272.31
2022-12-08T07:03:00.403Z,98274.16
2022-12-08T07:05:27.259Z,98274.16
2022-12-08T07:07:54.159Z,98277.69
2022-12-08T07:10:20.978Z,98277.06
2022-12-08T07:12:47.753Z,98280.81
2022-12-08T07:15:14.551Z,98283.28
2022-12-08T07:17:41.405Z,98280.38
2022-12-08T07:20:08.608Z,98279.53
2022-12-08T07:22:35.430Z,98275.00
2022-12-08T07:25:02.512Z,98279.91
2022-12-08T07:27:29.316Z,98271.84
2022-12-08T07:29:56.077Z,98277.84
2022-12-08T07:32:23.130Z,98274.94
2022-12-08T07:34:50.013Z,98277.19
2022-12-08T07:37:16.807Z,98267.03
2022-12-08T07:39:44.297Z,98266.56
2022-12-08T07:42:11.200Z,98264.47
2022-12-08T07:44:37.995Z,98261.78
2022-12-08T07:47:05.022Z,98256.41
2022-12-08T07:49:31.933Z,98258.06
2022-12-08T07:51:58.744Z,98261.34
2022-12-08T07:54:25.564Z,98265.69
2022-12-08T07:56:52.320Z,98257.00
2022-12-08T07:59:19.700Z,98253.06
2022-12-08T08:02:00.813Z,98252.22
2022-12-08T08:04:34.420Z,98255.75
2022-12-08T08:07:01.270Z,98252.00
2022-12-08T08:09:28.022Z,98252.00
2022-12-08T08:12:22.257Z,98256.34
2022-12-08T08:14:41.679Z,98255.06
2022-12-08T08:17:08.659Z,98251.31
2022-12-08T08:19:35.578Z,98256.94
2022-12-08T08:22:02.406Z,98255.69
2022-12-08T08:24:29.205Z,98260.84
2022-12-08T08:26:55.957Z,98257.31
2022-12-08T08:29:22.815Z,98253.59
2022-12-08T08:31:49.927Z,98262.25
2022-12-08T08:34:16.825Z,98250.69
2022-12-08T08:36:43.714Z,98257.69
2022-12-08T08:39:10.701Z,98245.44
2022-12-08T08:41:37.541Z,98248.34
2022-12-08T08:44:04.742Z,98251.03
2022-12-08T08:46:32.110Z,98236.53
2022-12-08T08:48:58.899Z,98240.87
2022-12-08T08:51:25.748Z,98236.53
2022-12-08T08:53:52.584Z,98234.69
2022-12-08T08:56:20.041Z,98230.13
2022-12-08T08:58:50.769Z,98231.75
2022-12-08T09:01:21.092Z,98234.22
2022-12-08T09:03:48.847Z,98229.66
2022-12-08T09:06:15.683Z,98229.22
2022-12-08T09:08:43.331Z,98230.25
2022-12-08T09:11:10.797Z,98236.47
2022-12-08T09:13:37.894Z,98232.50
2022-12-08T09:16:07.613Z,98234.13
2022-12-08T09:18:34.859Z,98237.41
2022-12-08T09:21:07.309Z,98224.78
2022-12-08T09:23:35.697Z,98224.56
2022-12-08T09:26:03.761Z,98228.06
2022-12-08T09:28:30.894Z,98229.50
2022-12-08T09:30:57.815Z,98218.75
2022-12-08T09:33:24.644Z,98222.50
2022-12-08T09:35:51.418Z,98214.41
2022-12-08T09:38:18.733Z,98220.97
2022-12-08T09:40:55.173Z,98215.84
2022-12-08T09:44:16.412Z,98211.03
2022-12-08T09:46:44.107Z,98210.00
2022-12-08T09:49:16.556Z,98207.06
2022-12-08T09:51:44.704Z,98208.72
2022-12-08T09:54:17.158Z,98200.19
2022-12-08T09:56:44.286Z,98200.78
2022-12-08T09:59:23.502Z,98202.41
2022-12-08T10:01:51.184Z,98202.19
2022-12-08T10:04:24.820Z,98206.97
2022-12-08T10:07:07.460Z,98211.31
2022-12-08T10:09:58.911Z,98212.94
2022-12-08T10:12:41.444Z,98200.31
2022-12-08T10:15:26.568Z,98199.25
2022-12-08T10:17:54.942Z,98197.16
2022-12-08T10:20:24.660Z,98191.78
2022-12-08T10:23:01.702Z,98186.37
2022-12-08T10:25:36.570Z,98181.81
2022-12-08T10:28:03.378Z,98178.91
2022-12-08T10:30:31.861Z,98182.22
2022-12-08T10:32:58.809Z,98178.47
2022-12-08T10:35:43.639Z,98179.28
2022-12-08T10:38:18.794Z,98173.91
2022-12-08T10:40:47.112Z,98159.41
2022-12-08T10:43:21.817Z,98162.91
2022-12-08T10:45:49.049Z,98157.53
2022-12-08T10:48:26.985Z,98154.38
2022-12-08T10:50:56.747Z,98149.81
2022-12-08T10:53:26.618Z,98145.03
2022-12-08T10:55:53.323Z,98144.78
2022-12-08T10:58:24.647Z,98139.41
2022-12-08T11:00:54.552Z,98134.84
2022-12-08T11:03:30.773Z,98127.59
2022-12-08T11:06:05.410Z,98121.16
2022-12-08T11:08:47.195Z,98115.75
2022-12-08T11:11:14.189Z,98109.09
2022-12-08T11:13:42.217Z,98106.41
2022-12-08T11:16:13.666Z,98099.16
2022-12-08T11:18:47.099Z,98091.06
2022-12-08T11:21:17.321Z,98084.62
2022-12-08T11:23:48.722Z,98083.09
2022-12-08T11:26:28.873Z,98080.66
2022-12-08T11:28:56.979Z,98072.94
2022-12-08T11:31:35.340Z,98071.09
2022-12-08T11:34:03.492Z,98070.88
2022-12-08T11:36:33.615Z,98073.34
2022-12-08T11:39:04.531Z,98069.59
2022-12-08T11:41:39.032Z,98062.31
2022-12-08T11:44:22.173Z,98069.12
2022-12-08T11:47:06.423Z,98071.00
2022-12-08T11:49:39.579Z,98069.34
2022-12-08T11:52:13.083Z,98063.72
2022-12-08T11:55:05.365Z,98064.06
2022-12-08T11:57:32.319Z,98059.50
2022-12-08T12:00:01.601Z,98061.38
2022-12-08T12:02:32.196Z,98056.00
2022-12-08T12:05:11.057Z,98063.25
2022-12-08T12:08:18.145Z,98063.25
2022-12-08T12:11:12.695Z,98057.28
2022-12-08T12:14:00.998Z,98058.09
2022-12-08T12:16:33.630Z,98066.19
2022-12-08T12:19:04.616Z,98064.53
2022-12-08T12:21:34.604Z,98059.41
2022-12-08T12:24:07.465Z,98056.72
2022-12-08T12:26:37.937Z,98062.09
2022-12-08T12:29:19.514Z,98054.84
2022-12-08T12:31:53.509Z,98053.19
2022-12-08T12:34:24.556Z,98047.56
2022-12-08T12:37:08.021Z,98037.03
2022-12-08T12:39:48.896Z,98029.78
2022-12-08T12:42:56.918Z,98030.03
2022-12-08T12:45:28.819Z,98022.41
2022-12-08T12:47:56.833Z,98016.56
2022-12-08T12:50:33.475Z,98012.22
2022-12-08T12:53:03.169Z,98018.66
2022-12-08T12:55:52.554Z,98024.88
2022-12-08T12:58:23.283Z,98019.47
2022-12-08T13:00:50.125Z,98011.16
2022-12-08T13:03:17.857Z,98002.28
2022-12-08T13:05:53.325Z,98003.34
2022-12-08T13:08:24.491Z,97999.25
2022-12-08T13:11:02.639Z,98010.81
2022-12-08T13:13:29.938Z,98001.94
2022-12-08T13:16:19.070Z,98002.50
2022-12-08T13:18:52.539Z,98000.41
2022-12-08T13:21:22.824Z,97996.66
2022-12-08T13:23:51.281Z,98006.59
2022-12-08T13:26:23.831Z,97993.16
2022-12-08T13:28:59.545Z,97991.50
2022-12-08T13:31:35.382Z,97993.38
2022-12-08T13:34:06.597Z,97989.63
2022-12-08T13:36:38.877Z,97976.16
2022-12-08T13:39:07.508Z,97985.88
2022-12-08T13:41:41.764Z,97982.94
2022-12-08T13:53:49.584Z,97989.75
2022-12-08T13:58:42.660Z,97998.06
2022-12-08T14:01:22.416Z,97993.72
2022-12-08T14:04:34.276Z,97999.94
2022-12-08T14:07:01.013Z,97994.78
2022-12-08T14:09:33.903Z,97993.72
2022-12-08T14:12:25.189Z,97991.28
2022-12-08T14:15:04.591Z,97985.88
2022-12-08T14:17:32.368Z,97983.19
2022-12-08T14:20:19.478Z,97995.00
2022-12-08T14:22:46.949Z,97989.63
2022-12-08T14:25:16.169Z,97991.28
2022-12-08T14:27:43.488Z,97992.31
2022-12-08T14:30:13.911Z,97985.06
2022-12-08T14:32:50.991Z,97988.34
2022-12-08T14:35:49.050Z,97988.34
2022-12-08T14:38:18.038Z,97986.47
2022-12-08T14:41:01.099Z,97985.41
2022-12-08T14:43:29.969Z,97998.88
2022-12-08T14:46:06.625Z,97988.91
2022-12-08T14:48:38.999Z,97982.94
2022-12-08T14:51:23.899Z,97995.34
2022-12-08T14:54:01.404Z,97994.31
2022-12-08T14:56:46.768Z,97995.59
2022-12-08T14:59:26.450Z,97990.78
2022-12-08T15:02:09.669Z,97982.94
2022-12-08T15:04:42.524Z,97997.22
2022-12-08T15:07:32.684Z,97988.09
2022-12-08T15:10:17.854Z,97979.44
2022-12-08T15:13:03.938Z,97991.50
2022-12-08T15:15:32.769Z,97984.25
2022-12-08T15:18:12.737Z,97995.00
2022-12-08T15:20:40.353Z,97997.47
2022-12-08T15:23:23.813Z,97994.78
2022-12-08T15:25:51.126Z,97993.16
2022-12-08T15:28:25.218Z,97998.53
2022-12-08T15:30:56.088Z,97995.00
2022-12-08T15:33:23.041Z,98000.41
2022-12-08T15:35:51.208Z,98002.28
2022-12-08T15:38:22.861Z,98001.22
2022-12-08T15:40:50.204Z,98001.22
2022-12-08T15:43:17.038Z,98001.22
2022-12-08T15:45:56.284Z,98003.91
2022-12-08T15:48:30.456Z,97996.87
2022-12-08T15:50:57.583Z,97998.53
2022-12-08T15:53:24.736Z,98006.59
2022-12-08T15:58:55.757Z,98004.16
2022-12-08T16:01:24.108Z,98004.97
2022-12-08T16:09:29.416Z,98005.56
2022-12-08T16:12:15.065Z,98004.97
2022-12-08T16:17:31.946Z,98000.16
2022-12-08T16:19:59.334Z,98006.13
2022-12-08T16:25:20.278Z,98005.56
2022-12-08T16:28:01.489Z,98002.03
2022-12-08T16:30:30.651Z,98008.25
2022-12-08T16:32:57.750Z,98004.72
2022-12-08T16:35:24.603Z,98006.38
2022-12-08T16:37:51.414Z,98001.81
2022-12-08T16:40:18.800Z,98001.81
2022-12-08T16:42:50.383Z,98000.97
2022-12-08T16:45:27.540Z,97992.91
2022-12-08T16:47:59.065Z,98002.84
2022-12-08T16:50:27.763Z,98005.78
2022-12-08T16:53:00.332Z,97999.81
2022-12-08T16:55:27.894Z,98003.91
2022-12-08T16:57:55.084Z,98001.47
2022-12-08T17:00:25.025Z,98004.97
2022-12-08T17:02:52.873Z,97994.19
2022-12-08T17:05:21.984Z,98002.28
2022-12-08T17:07:51.245Z,97992.31
2022-12-08T17:10:25.232Z,97998.75
2022-12-08T17:12:52.383Z,97999.59
2022-12-08T17:15:22.764Z,97993.38
2022-12-08T17:17:50.531Z,97991.28
2022-12-08T17:20:23.623Z,98006.38
2022-12-08T17:22:50.803Z,98003.91
2022-12-08T17:25:17.683Z,98002.28
2022-12-08T17:27:44.451Z,98008.47
2022-12-08T17:30:15.719Z,98007.66
2022-12-08T17:32:43.741Z,98002.03
2022-12-08T17:35:11.984Z,97999.59
2022-12-08T17:37:39.283Z,97992.81
2022-12-08T17:40:07.436Z,97988.47
2022-12-08T17:42:34.878Z,97984.72
2022-12-08T17:45:01.861Z,97989.06
2022-12-08T17:47:30.094Z,97982.03
2022-12-08T17:49:57.362Z,97981.78
2022-12-08T17:52:24.339Z,97983.09
2022-12-08T17:54:51.547Z,97987.41
2022-12-08T17:57:18.360Z,97993.84
2022-12-08T17:59:45.309Z,97993.00
2022-12-08T18:02:12.552Z,97991.75
2022-12-08T18:04:41.301Z,97994.66
2022-12-08T18:07:08.368Z,97987.41
2022-12-08T18:09:35.409Z,97983.91
2022-12-08T18:12:02.444Z,97982.84
2022-12-08T18:14:29.623Z,97975.34
2022-12-08T18:16:57.003Z,97980.97
2022-12-08T18:19:24.112Z,97970.22
2022-12-08T18:21:50.898Z,97975.59
2022-12-08T18:24:22.156Z,97977.22
2022-12-08T18:26:52.695Z,97968.34
2022-12-08T18:29:21.305Z,97978.88
2022-12-08T18:31:48.548Z,97969.38
2022-12-08T18:34:15.695Z,97964.81
2022-12-08T18:36:42.664Z,97967.50
2022-12-08T18:39:20.214Z,97972.66
2022-12-08T18:41:48.294Z,97968.09
2022-12-08T18:44:15.549Z,97971.84
2022-12-08T18:46:42.731Z,97978.03
2022-12-08T18:49:14.444Z,97982.59
2022-12-08T18:51:43.580Z,97980.16
2022-12-08T18:54:12.380Z,97982.03
2022-12-08T18:56:40.262Z,97976.41
2022-12-08T18:59:12.264Z,97969.97
2022-12-08T19:01:40.616Z,97967.28
2022-12-08T19:06:57.120Z,97971.84
2022-12-08T19:09:27.205Z,97973.47
2022-12-08T19:11:55.346Z,97973.72
2022-12-08T19:14:28.593Z,97967.28
2022-12-08T19:16:57.719Z,97977.00
2022-12-08T19:19:26.193Z,97968.34
2022-12-08T19:21:54.087Z,97971.84
2022-12-08T19:24:21.385Z,97969.97
2022-12-08T19:26:49.211Z,97968.34
2022-12-08T19:29:16.800Z,97964.00
2022-12-08T19:31:45.197Z,97972.91
2022-12-08T19:34:15.846Z,97964.00
2022-12-08T19:36:45.577Z,97968.34
2022-12-08T19:39:37.437Z,97962.72
2022-12-08T19:42:32.665Z,97961.88
2022-12-08T19:45:15.685Z,97964.59
2022-12-08T19:47:43.540Z,97965.16
2022-12-08T19:50:31.445Z,97964.34
2022-12-08T19:52:59.230Z,97965.41
2022-12-08T19:55:28.272Z,97964.34
2022-12-08T19:57:57.628Z,97963.53
2022-12-08T20:00:25.320Z,97959.78
2022-12-08T20:02:54.957Z,97960.59
2022-12-08T20:05:23.680Z,97963.53
2022-12-08T20:07:51.341Z,97965.41
2022-12-08T20:10:22.707Z,97965.16
2022-12-08T20:12:51.058Z,97966.22
2022-12-08T20:15:19.380Z,97967.84
2022-12-08T20:17:50.327Z,97965.97
2022-12-08T20:20:18.001Z,97974.06
2022-12-08T20:22:46.346Z,97985.16
2022-12-08T20:25:15.713Z,97978.88
2022-12-08T20:27:43.785Z,97979.44
2022-12-08T20:30:16.738Z,97982.72
2022-12-08T20:32:46.232Z,97995.59
2022-12-08T20:35:14.773Z,97990.22
2022-12-08T20:37:41.982Z,97988.56
2022-12-08T20:40:10.114Z,97992.91
2022-12-08T20:42:37.862Z,98001.22
2022-12-08T20:45:08.227Z,98005.56
2022-12-08T20:47:37.755Z,97998.75
2022-12-08T20:50:07.832Z,97999.59
2022-12-08T20:52:38.071Z,97996.31
2022-12-08T20:55:07.553Z,97997.37
2022-12-08T20:57:35.517Z,97996.31
2022-12-08T21:00:03.108Z,97985.53
2022-12-08T21:02:30.777Z,97982.84
2022-12-08T21:04:58.048Z,97986.59
2022-12-08T21:07:24.996Z,97997.13
2022-12-08T21:09:52.869Z,97991.97
2022-12-08T21:12:20.155Z,97989.50
2022-12-08T21:14:47.561Z,97993.00
2022-12-08T21:17:14.613Z,97978.34
2022-12-08T21:19:41.514Z,97982.91
2022-12-08T21:22:08.509Z,97984.22
2022-12-08T21:24:35.434Z,97987.47
2022-12-08T21:27:02.296Z,97973.22
2022-12-08T21:29:29.265Z,97968.88
2022-12-08T21:32:00.334Z,97956.72
2022-12-08T21:34:31.926Z,97957.53
2022-12-08T21:36:58.872Z,97954.25
2022-12-08T21:39:26.131Z,97960.47
2022-12-08T21:42:12.103Z,97965.25
2022-12-08T21:44:38.984Z,97966.31
2022-12-08T21:47:06.550Z,97974.16
2022-12-08T21:49:33.682Z,97959.63
2022-12-08T21:52:00.582Z,97968.19
2022-12-08T21:54:27.488Z,97968.44
2022-12-08T21:56:54.415Z,97959.31
2022-12-08T21:59:21.311Z,97965.75
2022-12-08T22:01:48.530Z,97973.22
2022-12-08T22:04:21.198Z,97973.22
2022-12-08T22:06:49.036Z,97985.62
2022-12-08T22:09:16.006Z,97976.50
2022-12-08T22:11:44.087Z,97988.56
2022-12-08T22:14:14.874Z,97987.75
2022-12-08T22:16:43.086Z,97984.47
2022-12-08T22:19:10.360Z,97977.22
2022-12-08T22:21:38.447Z,97973.13
2022-12-08T22:24:06.205Z,97964.22
2022-12-08T22:26:33.230Z,97958.84
2022-12-08T22:29:00.539Z,97958.00
2022-12-08T22:31:28.462Z,97957.19
2022-12-08T22:33:55.936Z,97958.22
2022-12-08T22:36:25.495Z,97954.72
2022-12-08T22:38:53.948Z,97935.87
2022-12-08T22:41:22.215Z,97928.06
2022-12-08T22:43:50.247Z,97934.00
2022-12-08T22:46:26.016Z,97923.97
2022-12-08T22:48:54.344Z,97930.16
2022-12-08T22:51:21.927Z,97946.06
2022-12-08T22:53:49.437Z,97949.25
2022-12-08T22:56:17.730Z,97945.50
2022-12-08T22:58:45.496Z,97951.69
2022-12-08T23:01:24.853Z,97962.44
2022-12-08T23:03:51.827Z,97975.66
2022-12-08T23:06:19.164Z,97967.25
2022-12-08T23:08:46.192Z,97954.28
2022-12-08T23:11:13.304Z,97966.09
2022-12-08T23:13:40.794Z,97957.19
2022-12-08T23:16:09.313Z,97945.84
2022-12-08T23:18:37.475Z,97949.38
2022-12-08T23:21:09.773Z,97939.06
2022-12-08T23:23:37.084Z,97926.69
2022-12-08T23:26:05.236Z,97913.13
2022-12-08T23:28:32.000Z,97918.50
2022-12-08T23:30:58.698Z,97916.00
2022-12-08T23:33:25.573Z,97926.56
2022-12-08T23:35:58.666Z,97917.69
2022-12-08T23:38:26.166Z,97920.56
2022-12-08T23:40:53.660Z,97924.09
2022-12-08T23:43:20.490Z,97917.06
2022-12-08T23:45:48.429Z,97918.94
2022-12-08T23:48:15.499Z,97912.16
2022-12-08T23:50:42.457Z,97910.28
2022-12-08T23:53:09.225Z,97914.84
2022-12-08T23:55:35.943Z,97916.47
2022-12-08T23:58:02.685Z,97932.38
